KCPR/CPR METAR and TAF weather

Enter ICAO airport designator
Station Type Date Time Source
KCPR METAR 2019/10/20 18:53 UTC NOAA

KCPR 201853Z 30022G31KT 9SM -SN OVC032 02/M02 A2975 RMK AO2 PK WND 30033/1836 SLP074 P0000 T00171017


Station Type Date Time Source
KCPR Decoded METAR 2019/10/20 18:53 UTC NOAA

NATRONA COUNTY INTERNATIONAL AIRPORT , WY, United States (KCPR) 42-54N 106-28W 1621M
Oct 20, 2019 - 02:53 PM EDT / 2019.10.20 1853 UTC
Wind: from the WNW (300 degrees) at 25 MPH (22 KT) gusting to 36 MPH (31 KT):0
Visibility: 9 mile(s):0
Sky conditions: overcast
Weather: light snow
Precipitation last hour: A trace
Temperature: 35.1 F (1.7 C)
Dew Point: 28.9 F (-1.7 C)
Relative Humidity: 78%
Pressure (altimeter): 29.75 in. Hg (1007 hPa)
ob: KCPR 201853Z 30022G31KT 9SM -SN OVC032 02/M02 A2975 RMK AO2 PK WND 30033/1836 SLP074 P0000 T00171017
cycle: 19

Station Type Date Time Source
KCPR TAF 2019/10/20 18:40 UTC NOAA

TAF KCPR 201738Z 2018/2118 31020G30KT 1/2SM SN OVC009
FM202000 33015G25KT 4SM -SHSN SCT015 OVC025
FM202300 35010KT P6SM VCSH SCT014 OVC022
FM210100 29008KT P6SM SCT022 BKN035

Example: see airport list